sensor_id;sensor_type;location;lat;lon;timestamp;pressure;altitude;pressure_sealevel;temperature;humidity
76753;BME280;65687;51.308;16.916;2023-03-01T00:00:06;101120.02;;;-3.43;76.59
76753;BME280;65687;51.308;16.916;2023-03-01T00:05:28;101120.90;;;-3.46;76.50
76753;BME280;65687;51.308;16.916;2023-03-01T00:10:28;101119.40;;;-3.45;76.49
76753;BME280;65687;51.308;16.916;2023-03-01T00:15:29;101118.54;;;-3.45;76.66
76753;BME280;65687;51.308;16.916;2023-03-01T00:20:30;101121.92;;;-3.51;76.79
76753;BME280;65687;51.308;16.916;2023-03-01T00:25:31;101129.87;;;-3.54;76.86
76753;BME280;65687;51.308;16.916;2023-03-01T00:30:32;101117.42;;;-3.52;76.81
76753;BME280;65687;51.308;16.916;2023-03-01T00:35:33;101104.64;;;-3.51;77.15
76753;BME280;65687;51.308;16.916;2023-03-01T00:40:35;101093.86;;;-3.50;77.32
76753;BME280;65687;51.308;16.916;2023-03-01T00:45:36;101091.20;;;-3.50;77.01
76753;BME280;65687;51.308;16.916;2023-03-01T00:50:37;101101.08;;;-3.62;76.98
76753;BME280;65687;51.308;16.916;2023-03-01T00:55:38;101100.27;;;-3.64;77.10
76753;BME280;65687;51.308;16.916;2023-03-01T01:00:38;101094.10;;;-3.48;76.63
76753;BME280;65687;51.308;16.916;2023-03-01T01:05:39;101085.77;;;-3.37;76.57
76753;BME280;65687;51.308;16.916;2023-03-01T01:10:43;101075.40;;;-3.35;76.58
76753;BME280;65687;51.308;16.916;2023-03-01T01:15:44;101072.55;;;-3.35;76.26
76753;BME280;65687;51.308;16.916;2023-03-01T01:20:45;101063.61;;;-3.47;76.52
76753;BME280;65687;51.308;16.916;2023-03-01T01:25:46;101060.60;;;-3.52;76.63
76753;BME280;65687;51.308;16.916;2023-03-01T01:30:47;101056.33;;;-3.54;76.62
76753;BME280;65687;51.308;16.916;2023-03-01T01:35:47;101055.27;;;-3.57;76.40
76753;BME280;65687;51.308;16.916;2023-03-01T01:40:49;101052.27;;;-3.63;76.37
76753;BME280;65687;51.308;16.916;2023-03-01T01:45:55;101043.51;;;-3.60;76.22
76753;BME280;65687;51.308;16.916;2023-03-01T01:50:59;101044.52;;;-3.57;76.18
76753;BME280;65687;51.308;16.916;2023-03-01T01:56:02;101046.11;;;-3.58;76.12
76753;BME280;65687;51.308;16.916;2023-03-01T02:01:04;101040.70;;;-3.63;76.37
76753;BME280;65687;51.308;16.916;2023-03-01T02:11:13;101036.52;;;-3.81;76.75
76753;BME280;65687;51.308;16.916;2023-03-01T02:16:16;101033.79;;;-3.92;77.25
76753;BME280;65687;51.308;16.916;2023-03-01T02:26:45;101042.94;;;-3.95;77.21
76753;BME280;65687;51.308;16.916;2023-03-01T02:31:48;101037.70;;;-3.96;77.50
76753;BME280;65687;51.308;16.916;2023-03-01T02:36:54;101043.02;;;-3.87;77.39
76753;BME280;65687;51.308;16.916;2023-03-01T02:41:57;101038.83;;;-3.76;77.27
76753;BME280;65687;51.308;16.916;2023-03-01T02:47:01;101031.54;;;-3.75;77.13
76753;BME280;65687;51.308;16.916;2023-03-01T02:52:17;101030.36;;;-3.75;77.29
76753;BME280;65687;51.308;16.916;2023-03-01T02:57:23;101034.90;;;-3.85;77.27
76753;BME280;65687;51.308;16.916;2023-03-01T03:02:26;101041.65;;;-3.93;77.43
76753;BME280;65687;51.308;16.916;2023-03-01T03:07:39;101044.71;;;-3.93;77.20
76753;BME280;65687;51.308;16.916;2023-03-01T03:12:40;101044.69;;;-3.90;77.47
76753;BME280;65687;51.308;16.916;2023-03-01T03:17:42;101042.58;;;-3.84;77.39
76753;BME280;65687;51.308;16.916;2023-03-01T03:22:43;101039.02;;;-3.76;77.53
76753;BME280;65687;51.308;16.916;2023-03-01T03:27:45;101031.39;;;-3.70;77.44
76753;BME280;65687;51.308;16.916;2023-03-01T03:32:47;101022.26;;;-3.71;77.07
76753;BME280;65687;51.308;16.916;2023-03-01T03:37:52;101022.63;;;-3.76;76.98
76753;BME280;65687;51.308;16.916;2023-03-01T03:43:04;101014.92;;;-3.88;77.27
76753;BME280;65687;51.308;16.916;2023-03-01T03:48:07;101005.73;;;-3.95;77.45
76753;BME280;65687;51.308;16.916;2023-03-01T03:53:11;101004.35;;;-3.97;77.35
76753;BME280;65687;51.308;16.916;2023-03-01T03:58:12;101009.11;;;-4.03;77.20
76753;BME280;65687;51.308;16.916;2023-03-01T04:03:15;101004.83;;;-4.01;77.37
76753;BME280;65687;51.308;16.916;2023-03-01T04:08:18;101009.20;;;-3.92;77.12
76753;BME280;65687;51.308;16.916;2023-03-01T04:13:22;101006.02;;;-3.93;77.21
76753;BME280;65687;51.308;16.916;2023-03-01T04:18:23;101008.20;;;-3.95;76.96
76753;BME280;65687;51.308;16.916;2023-03-01T04:23:25;101002.15;;;-4.06;77.47
76753;BME280;65687;51.308;16.916;2023-03-01T04:28:27;100993.17;;;-4.13;77.68
76753;BME280;65687;51.308;16.916;2023-03-01T04:33:28;100992.50;;;-4.19;77.84
76753;BME280;65687;51.308;16.916;2023-03-01T04:38:29;100989.40;;;-4.19;77.95
76753;BME280;65687;51.308;16.916;2023-03-01T04:43:30;100995.36;;;-4.22;77.81
76753;BME280;65687;51.308;16.916;2023-03-01T04:48:31;100999.72;;;-4.16;77.26
76753;BME280;65687;51.308;16.916;2023-03-01T04:53:33;100997.11;;;-4.10;77.12
76753;BME280;65687;51.308;16.916;2023-03-01T04:58:34;100995.41;;;-4.08;77.36
76753;BME280;65687;51.308;16.916;2023-03-01T05:03:35;100994.67;;;-4.10;77.36
76753;BME280;65687;51.308;16.916;2023-03-01T05:08:39;100990.62;;;-4.15;77.37
76753;BME280;65687;51.308;16.916;2023-03-01T05:13:41;100994.84;;;-4.25;77.58
76753;BME280;65687;51.308;16.916;2023-03-01T05:18:42;100993.86;;;-4.35;77.99
76753;BME280;65687;51.308;16.916;2023-03-01T05:23:44;100996.58;;;-4.36;78.04
76753;BME280;65687;51.308;16.916;2023-03-01T05:28:47;100995.85;;;-4.35;78.42
76753;BME280;65687;51.308;16.916;2023-03-01T05:33:48;100993.80;;;-4.33;78.05
76753;BME280;65687;51.308;16.916;2023-03-01T05:38:49;100994.48;;;-4.24;78.00
76753;BME280;65687;51.308;16.916;2023-03-01T05:43:50;100995.16;;;-4.20;77.91
76753;BME280;65687;51.308;16.916;2023-03-01T05:48:50;100992.91;;;-4.19;77.86
76753;BME280;65687;51.308;16.916;2023-03-01T05:53:51;100992.48;;;-4.22;78.04
76753;BME280;65687;51.308;16.916;2023-03-01T05:58:52;100994.45;;;-4.22;77.59
76753;BME280;65687;51.308;16.916;2023-03-01T06:03:53;100992.39;;;-4.22;77.32
76753;BME280;65687;51.308;16.916;2023-03-01T06:08:54;100995.86;;;-4.30;77.65
76753;BME280;65687;51.308;16.916;2023-03-01T06:13:55;100993.81;;;-4.34;77.78
76753;BME280;65687;51.308;16.916;2023-03-01T06:18:56;100987.58;;;-4.30;77.89
76753;BME280;65687;51.308;16.916;2023-03-01T06:23:57;100976.85;;;-4.26;77.90
76753;BME280;65687;51.308;16.916;2023-03-01T06:28:57;100975.95;;;-4.26;78.22
76753;BME280;65687;51.308;16.916;2023-03-01T06:33:58;100981.68;;;-4.22;78.34
76753;BME280;65687;51.308;16.916;2023-03-01T06:38:59;100977.17;;;-4.27;78.43
76753;BME280;65687;51.308;16.916;2023-03-01T06:44:00;100979.84;;;-4.18;78.98
76753;BME280;65687;51.308;16.916;2023-03-01T06:49:01;100975.19;;;-4.10;78.95
76753;BME280;65687;51.308;16.916;2023-03-01T06:54:05;100970.54;;;-4.07;78.63
76753;BME280;65687;51.308;16.916;2023-03-01T06:59:06;100976.92;;;-4.01;78.71
76753;BME280;65687;51.308;16.916;2023-03-01T07:04:06;100986.33;;;-3.89;79.15
76753;BME280;65687;51.308;16.916;2023-03-01T07:09:07;100990.27;;;-3.76;79.19
76753;BME280;65687;51.308;16.916;2023-03-01T07:14:08;100997.00;;;-3.60;79.23
76753;BME280;65687;51.308;16.916;2023-03-01T07:19:09;101003.48;;;-3.65;79.61
76753;BME280;65687;51.308;16.916;2023-03-01T07:24:11;101001.43;;;-3.63;79.53
76753;BME280;65687;51.308;16.916;2023-03-01T07:29:12;100999.23;;;-3.50;79.69
76753;BME280;65687;51.308;16.916;2023-03-01T07:34:12;100989.41;;;-3.36;79.57
76753;BME280;65687;51.308;16.916;2023-03-01T07:39:13;100994.38;;;-3.17;79.79
76753;BME280;65687;51.308;16.916;2023-03-01T07:44:14;100994.02;;;-3.01;79.67
76753;BME280;65687;51.308;16.916;2023-03-01T07:49:17;100989.23;;;-2.89;80.19
76753;BME280;65687;51.308;16.916;2023-03-01T07:54:17;100991.06;;;-2.71;79.26
76753;BME280;65687;51.308;16.916;2023-03-01T07:59:18;100989.08;;;-2.42;79.20
76753;BME280;65687;51.308;16.916;2023-03-01T08:04:19;100975.11;;;-2.05;76.51
76753;BME280;65687;51.308;16.916;2023-03-01T08:09:20;100968.26;;;-1.63;74.67
76753;BME280;65687;51.308;16.916;2023-03-01T08:14:21;100971.42;;;-1.25;74.39
76753;BME280;65687;51.308;16.916;2023-03-01T08:19:22;100967.67;;;-0.85;72.86
76753;BME280;65687;51.308;16.916;2023-03-01T08:24:23;100962.86;;;-0.52;72.62
76753;BME280;65687;51.308;16.916;2023-03-01T08:29:24;100960.02;;;-0.15;71.78
76753;BME280;65687;51.308;16.916;2023-03-01T08:34:25;100966.15;;;0.19;71.44
76753;BME280;65687;51.308;16.916;2023-03-01T08:39:26;100968.10;;;0.46;70.09
76753;BME280;65687;51.308;16.916;2023-03-01T08:44:27;100965.95;;;0.71;69.00
76753;BME280;65687;51.308;16.916;2023-03-01T08:49:28;100959.42;;;1.00;67.84
76753;BME280;65687;51.308;16.916;2023-03-01T08:54:29;100951.23;;;1.20;67.21
76753;BME280;65687;51.308;16.916;2023-03-01T08:59:31;100944.33;;;1.40;66.64
76753;BME280;65687;51.308;16.916;2023-03-01T09:04:36;100947.62;;;1.61;65.49
76753;BME280;65687;51.308;16.916;2023-03-01T09:09:40;100940.39;;;1.73;64.40
76753;BME280;65687;51.308;16.916;2023-03-01T09:14:41;100932.77;;;1.79;63.33
76753;BME280;65687;51.308;16.916;2023-03-01T09:19:42;100931.06;;;1.83;62.81
76753;BME280;65687;51.308;16.916;2023-03-01T09:24:43;100936.77;;;1.86;62.54
76753;BME280;65687;51.308;16.916;2023-03-01T09:29:45;100931.81;;;1.80;61.66
76753;BME280;65687;51.308;16.916;2023-03-01T09:34:45;100930.13;;;1.80;62.11
76753;BME280;65687;51.308;16.916;2023-03-01T09:40:05;100936.80;;;1.83;61.96
76753;BME280;65687;51.308;16.916;2023-03-01T09:45:11;100942.36;;;1.85;60.37
76753;BME280;65687;51.308;16.916;2023-03-01T09:50:19;100946.45;;;1.85;60.98
76753;BME280;65687;51.308;16.916;2023-03-01T09:55:27;100945.46;;;1.99;60.89
76753;BME280;65687;51.308;16.916;2023-03-01T10:00:49;100941.66;;;2.10;60.89
76753;BME280;65687;51.308;16.916;2023-03-01T10:11:00;100925.49;;;2.74;60.43
76753;BME280;65687;51.308;16.916;2023-03-01T10:16:11;100920.04;;;3.13;58.56
76753;BME280;65687;51.308;16.916;2023-03-01T10:21:16;100913.23;;;3.36;56.67
76753;BME280;65687;51.308;16.916;2023-03-01T10:26:57;100907.57;;;3.47;54.79
76753;BME280;65687;51.308;16.916;2023-03-01T10:32:00;100906.58;;;3.59;54.59
76753;BME280;65687;51.308;16.916;2023-03-01T10:37:18;100908.94;;;3.79;53.25
76753;BME280;65687;51.308;16.916;2023-03-01T10:42:31;100906.41;;;3.97;53.11
76753;BME280;65687;51.308;16.916;2023-03-01T10:47:32;100899.67;;;4.16;54.63
76753;BME280;65687;51.308;16.916;2023-03-01T10:52:35;100885.27;;;4.34;54.66
76753;BME280;65687;51.308;16.916;2023-03-01T10:57:39;100880.18;;;4.53;53.85
76753;BME280;65687;51.308;16.916;2023-03-01T11:02:41;100879.14;;;4.55;52.30
76753;BME280;65687;51.308;16.916;2023-03-01T11:08:08;100874.52;;;4.69;52.36
76753;BME280;65687;51.308;16.916;2023-03-01T11:13:16;100868.58;;;4.93;52.46
76753;BME280;65687;51.308;16.916;2023-03-01T11:18:22;100868.98;;;5.02;51.26
76753;BME280;65687;51.308;16.916;2023-03-01T11:23:24;100863.18;;;5.16;51.19
76753;BME280;65687;51.308;16.916;2023-03-01T11:28:27;100862.33;;;5.24;49.84
76753;BME280;65687;51.308;16.916;2023-03-01T11:34:00;100862.08;;;5.07;49.54
76753;BME280;65687;51.308;16.916;2023-03-01T11:39:27;100863.70;;;4.87;49.23
76753;BME280;65687;51.308;16.916;2023-03-01T11:44:33;100859.58;;;5.09;50.49
76753;BME280;65687;51.308;16.916;2023-03-01T12:16:56;100837.95;;;5.51;47.49
76753;BME280;65687;51.308;16.916;2023-03-01T12:43:55;100806.39;;;4.72;47.26
76753;BME280;65687;51.308;16.916;2023-03-01T12:49:15;100795.95;;;4.70;47.28
76753;BME280;65687;51.308;16.916;2023-03-01T12:54:29;100791.41;;;4.61;47.62
76753;BME280;65687;51.308;16.916;2023-03-01T12:59:38;100789.15;;;4.63;49.17
76753;BME280;65687;51.308;16.916;2023-03-01T13:10:11;100783.88;;;4.48;49.64
76753;BME280;65687;51.308;16.916;2023-03-01T13:20:34;100780.28;;;4.38;49.18
76753;BME280;65687;51.308;16.916;2023-03-01T13:26:16;100779.96;;;4.19;49.82
76753;BME280;65687;51.308;16.916;2023-03-01T13:46:45;100763.30;;;4.19;49.81
76753;BME280;65687;51.308;16.916;2023-03-01T13:51:47;100752.80;;;4.23;50.09
76753;BME280;65687;51.308;16.916;2023-03-01T13:56:48;100748.92;;;4.19;50.24
76753;BME280;65687;51.308;16.916;2023-03-01T14:02:12;100745.70;;;4.14;49.94
76753;BME280;65687;51.308;16.916;2023-03-01T14:07:19;100744.73;;;4.10;50.89
76753;BME280;65687;51.308;16.916;2023-03-01T14:17:55;100719.30;;;4.11;50.16
76753;BME280;65687;51.308;16.916;2023-03-01T14:23:02;100708.69;;;4.15;51.19
76753;BME280;65687;51.308;16.916;2023-03-01T14:28:19;100703.66;;;4.18;51.38
76753;BME280;65687;51.308;16.916;2023-03-01T14:38:30;100694.98;;;4.26;52.50
76753;BME280;65687;51.308;16.916;2023-03-01T14:43:32;100695.37;;;4.22;51.74
76753;BME280;65687;51.308;16.916;2023-03-01T14:48:33;100685.48;;;4.19;51.70
76753;BME280;65687;51.308;16.916;2023-03-01T14:53:34;100692.55;;;4.21;52.32
76753;BME280;65687;51.308;16.916;2023-03-01T14:58:35;100694.52;;;4.20;52.43
76753;BME280;65687;51.308;16.916;2023-03-01T15:03:40;100688.92;;;4.18;51.80
76753;BME280;65687;51.308;16.916;2023-03-01T15:08:46;100690.13;;;4.18;52.25
76753;BME280;65687;51.308;16.916;2023-03-01T15:13:48;100689.94;;;4.16;52.59
76753;BME280;65687;51.308;16.916;2023-03-01T15:19:15;100686.05;;;4.11;52.23
76753;BME280;65687;51.308;16.916;2023-03-01T15:24:23;100687.57;;;4.03;52.45
76753;BME280;65687;51.308;16.916;2023-03-01T15:29:27;100679.77;;;3.95;52.51
76753;BME280;65687;51.308;16.916;2023-03-01T15:34:35;100674.92;;;3.90;52.41
76753;BME280;65687;51.308;16.916;2023-03-01T15:39:53;100677.92;;;3.84;53.43
76753;BME280;65687;51.308;16.916;2023-03-01T15:45:23;100682.58;;;3.69;55.76
76753;BME280;65687;51.308;16.916;2023-03-01T15:50:28;100688.56;;;3.43;57.04
76753;BME280;65687;51.308;16.916;2023-03-01T15:55:31;100700.51;;;3.21;58.25
76753;BME280;65687;51.308;16.916;2023-03-01T16:00:33;100702.30;;;2.97;59.50
76753;BME280;65687;51.308;16.916;2023-03-01T16:05:34;100702.88;;;2.67;61.46
76753;BME280;65687;51.308;16.916;2023-03-01T16:10:37;100702.86;;;2.40;62.03
76753;BME280;65687;51.308;16.916;2023-03-01T16:15:38;100707.71;;;2.22;62.53
76753;BME280;65687;51.308;16.916;2023-03-01T16:20:40;100709.35;;;2.04;63.78
76753;BME280;65687;51.308;16.916;2023-03-01T16:25:41;100707.80;;;1.84;64.71
76753;BME280;65687;51.308;16.916;2023-03-01T16:30:46;100710.80;;;1.65;65.53
76753;BME280;65687;51.308;16.916;2023-03-01T16:35:51;100715.93;;;1.47;65.37
76753;BME280;65687;51.308;16.916;2023-03-01T16:40:52;100722.84;;;1.32;65.03
76753;BME280;65687;51.308;16.916;2023-03-01T16:45:53;100727.61;;;1.13;66.45
76753;BME280;65687;51.308;16.916;2023-03-01T16:51:00;100732.41;;;0.93;66.35
76753;BME280;65687;51.308;16.916;2023-03-01T16:56:03;100729.70;;;0.78;66.17
76753;BME280;65687;51.308;16.916;2023-03-01T17:01:11;100724.89;;;0.68;66.82
76753;BME280;65687;51.308;16.916;2023-03-01T17:06:14;100724.31;;;0.62;67.46
76753;BME280;65687;51.308;16.916;2023-03-01T17:11:18;100723.73;;;0.56;66.83
76753;BME280;65687;51.308;16.916;2023-03-01T17:16:20;100732.59;;;0.44;67.21
76753;BME280;65687;51.308;16.916;2023-03-01T17:21:21;100732.02;;;0.30;67.02
76753;BME280;65687;51.308;16.916;2023-03-01T17:26:22;100729.51;;;0.17;67.70
76753;BME280;65687;51.308;16.916;2023-03-01T17:31:23;100731.45;;;0.07;67.94
76753;BME280;65687;51.308;16.916;2023-03-01T17:36:24;100733.63;;;-0.05;68.44
76753;BME280;65687;51.308;16.916;2023-03-01T17:41:25;100737.02;;;-0.12;69.20
76753;BME280;65687;51.308;16.916;2023-03-01T17:46:27;100732.80;;;-0.24;69.31
76753;BME280;65687;51.308;16.916;2023-03-01T17:51:28;100730.77;;;-0.37;69.33
76753;BME280;65687;51.308;16.916;2023-03-01T17:56:29;100733.77;;;-0.46;69.89
76753;BME280;65687;51.308;16.916;2023-03-01T18:01:32;100736.39;;;-0.54;69.18
76753;BME280;65687;51.308;16.916;2023-03-01T18:06:35;100732.51;;;-0.53;68.28
76753;BME280;65687;51.308;16.916;2023-03-01T18:11:36;100732.33;;;-0.56;68.62
76753;BME280;65687;51.308;16.916;2023-03-01T18:16:37;100727.17;;;-0.61;68.71
76753;BME280;65687;51.308;16.916;2023-03-01T18:21:39;100726.65;;;-0.66;68.38
76753;BME280;65687;51.308;16.916;2023-03-01T18:26:40;100719.30;;;-0.70;69.35
76753;BME280;65687;51.308;16.916;2023-03-01T18:31:41;100718.75;;;-0.73;69.55
76753;BME280;65687;51.308;16.916;2023-03-01T18:36:42;100720.86;;;-0.75;69.50
76753;BME280;65687;51.308;16.916;2023-03-01T18:41:43;100724.13;;;-0.77;69.25
76753;BME280;65687;51.308;16.916;2023-03-01T18:46:44;100727.77;;;-0.81;69.34
76753;BME280;65687;51.308;16.916;2023-03-01T18:51:45;100722.46;;;-0.85;69.67
76753;BME280;65687;51.308;16.916;2023-03-01T18:56:46;100715.92;;;-0.89;69.93
76753;BME280;65687;51.308;16.916;2023-03-01T19:01:47;100714.97;;;-0.96;70.27
76753;BME280;65687;51.308;16.916;2023-03-01T19:06:48;100710.50;;;-1.03;70.45
76753;BME280;65687;51.308;16.916;2023-03-01T19:11:49;100709.23;;;-1.03;70.62
76753;BME280;65687;51.308;16.916;2023-03-01T19:16:50;100712.38;;;-1.02;70.58
76753;BME280;65687;51.308;16.916;2023-03-01T19:21:51;100710.17;;;-1.05;70.85
76753;BME280;65687;51.308;16.916;2023-03-01T19:26:55;100708.90;;;-1.10;70.74
76753;BME280;65687;51.308;16.916;2023-03-01T19:31:56;100705.07;;;-1.20;70.63
76753;BME280;65687;51.308;16.916;2023-03-01T19:36:57;100709.39;;;-1.21;70.19
76753;BME280;65687;51.308;16.916;2023-03-01T19:41:58;100707.56;;;-1.18;69.72
76753;BME280;65687;51.308;16.916;2023-03-01T19:46:59;100705.61;;;-1.12;69.30
76753;BME280;65687;51.308;16.916;2023-03-01T19:51:59;100701.44;;;-1.11;69.35
76753;BME280;65687;51.308;16.916;2023-03-01T19:57:00;100696.23;;;-1.13;70.02
76753;BME280;65687;51.308;16.916;2023-03-01T20:02:01;100695.34;;;-1.20;69.69
76753;BME280;65687;51.308;16.916;2023-03-01T20:07:03;100700.91;;;-1.23;70.94
76753;BME280;65687;51.308;16.916;2023-03-01T20:12:04;100703.05;;;-1.25;71.00
76753;BME280;65687;51.308;16.916;2023-03-01T20:17:05;100696.67;;;-1.30;71.02
76753;BME280;65687;51.308;16.916;2023-03-01T20:22:06;100697.04;;;-1.34;71.48
76753;BME280;65687;51.308;16.916;2023-03-01T20:27:07;100696.30;;;-1.41;72.04
76753;BME280;65687;51.308;16.916;2023-03-01T20:32:08;100697.06;;;-1.56;72.53
76753;BME280;65687;51.308;16.916;2023-03-01T20:37:09;100693.07;;;-1.65;72.67
76753;BME280;65687;51.308;16.916;2023-03-01T20:42:10;100693.79;;;-1.67;72.10
76753;BME280;65687;51.308;16.916;2023-03-01T20:47:12;100696.23;;;-1.68;72.36
76753;BME280;65687;51.308;16.916;2023-03-01T20:52:13;100699.31;;;-1.65;71.75
76753;BME280;65687;51.308;16.916;2023-03-01T20:57:14;100695.52;;;-1.60;70.95
76753;BME280;65687;51.308;16.916;2023-03-01T21:02:14;100696.14;;;-1.63;70.51
76753;BME280;65687;51.308;16.916;2023-03-01T21:07:16;100701.24;;;-1.65;70.57
76753;BME280;65687;51.308;16.916;2023-03-01T21:12:17;100705.70;;;-1.75;70.97
76753;BME280;65687;51.308;16.916;2023-03-01T21:17:18;100708.63;;;-1.78;70.52
76753;BME280;65687;51.308;16.916;2023-03-01T21:22:19;100708.90;;;-1.85;70.63
76753;BME280;65687;51.308;16.916;2023-03-01T21:27:20;100710.12;;;-1.88;70.58
76753;BME280;65687;51.308;16.916;2023-03-01T21:32:20;100705.87;;;-1.94;71.06
76753;BME280;65687;51.308;16.916;2023-03-01T21:37:21;100701.95;;;-2.02;71.72
76753;BME280;65687;51.308;16.916;2023-03-01T21:42:28;100696.44;;;-2.10;72.66
76753;BME280;65687;51.308;16.916;2023-03-01T21:47:31;100695.58;;;-2.13;73.19
76753;BME280;65687;51.308;16.916;2023-03-01T21:52:33;100688.17;;;-2.17;73.42
76753;BME280;65687;51.308;16.916;2023-03-01T21:57:35;100679.16;;;-2.17;73.35
76753;BME280;65687;51.308;16.916;2023-03-01T22:02:43;100672.33;;;-2.13;73.28
76753;BME280;65687;51.308;16.916;2023-03-01T22:07:44;100668.02;;;-2.05;72.83
76753;BME280;65687;51.308;16.916;2023-03-01T22:12:44;100676.13;;;-1.98;72.92
76753;BME280;65687;51.308;16.916;2023-03-01T22:17:45;100676.30;;;-1.96;72.93
76753;BME280;65687;51.308;16.916;2023-03-01T22:22:46;100671.95;;;-1.95;72.89
76753;BME280;65687;51.308;16.916;2023-03-01T22:27:47;100669.34;;;-1.93;73.53
76753;BME280;65687;51.308;16.916;2023-03-01T22:32:48;100667.61;;;-1.91;73.36
76753;BME280;65687;51.308;16.916;2023-03-01T22:37:49;100664.42;;;-1.98;73.48
76753;BME280;65687;51.308;16.916;2023-03-01T22:42:50;100668.29;;;-2.03;73.82
76753;BME280;65687;51.308;16.916;2023-03-01T22:47:51;100668.59;;;-2.04;73.91
76753;BME280;65687;51.308;16.916;2023-03-01T22:52:52;100665.92;;;-2.07;73.73
76753;BME280;65687;51.308;16.916;2023-03-01T22:57:52;100661.66;;;-2.05;73.80
76753;BME280;65687;51.308;16.916;2023-03-01T23:02:53;100656.86;;;-1.99;73.23
76753;BME280;65687;51.308;16.916;2023-03-01T23:07:54;100656.78;;;-1.89;72.71
76753;BME280;65687;51.308;16.916;2023-03-01T23:12:55;100651.05;;;-1.83;72.56
76753;BME280;65687;51.308;16.916;2023-03-01T23:17:56;100649.65;;;-1.86;72.48
76753;BME280;65687;51.308;16.916;2023-03-01T23:22:57;100650.21;;;-1.94;72.46
76753;BME280;65687;51.308;16.916;2023-03-01T23:28:01;100647.98;;;-2.07;72.57
76753;BME280;65687;51.308;16.916;2023-03-01T23:33:03;100649.23;;;-2.17;73.48
76753;BME280;65687;51.308;16.916;2023-03-01T23:38:04;100649.04;;;-2.21;73.83
76753;BME280;65687;51.308;16.916;2023-03-01T23:43:04;100649.45;;;-2.22;73.81
76753;BME280;65687;51.308;16.916;2023-03-01T23:48:05;100651.83;;;-2.24;74.14
76753;BME280;65687;51.308;16.916;2023-03-01T23:53:16;100654.11;;;-2.23;74.41
76753;BME280;65687;51.308;16.916;2023-03-01T23:58:18;100655.85;;;-2.21;74.40
